createdAt,value
2023-01-20T00:01:40.376Z,29.92
2023-01-20T00:03:44.720Z,31.48
2023-01-20T00:05:54.048Z,29.75
2023-01-20T00:07:57.048Z,30.50
2023-01-20T00:09:59.887Z,30.90
2023-01-20T00:12:02.767Z,31.20
2023-01-20T00:14:07.217Z,30.65
2023-01-20T00:16:12.046Z,29.92
2023-01-20T00:18:15.046Z,29.17
2023-01-20T00:20:18.407Z,30.35
2023-01-20T00:22:22.406Z,29.63
2023-01-20T00:24:25.409Z,30.10
2023-01-20T00:26:28.290Z,29.75
2023-01-20T00:28:31.247Z,30.10
2023-01-20T00:30:35.979Z,30.25
2023-01-20T00:32:39.728Z,30.55
2023-01-20T00:34:42.609Z,30.73
2023-01-20T00:36:45.622Z,30.05
2023-01-20T00:38:48.887Z,29.80
2023-01-20T00:40:55.256Z,29.02
2023-01-20T00:42:58.167Z,30.17
2023-01-20T00:45:01.126Z,29.08
2023-01-20T00:47:05.600Z,26.77
2023-01-20T00:49:10.369Z,28.25
2023-01-20T00:51:13.210Z,28.20
2023-01-20T00:53:16.138Z,28.27
2023-01-20T00:55:19.125Z,28.63
2023-01-20T00:57:22.088Z,29.15
2023-01-20T00:59:24.887Z,30.25
2023-01-20T01:01:27.855Z,31.73
2023-01-20T01:03:32.208Z,31.70
2023-01-20T01:05:35.167Z,32.60
2023-01-20T01:07:38.018Z,31.85
2023-01-20T01:09:40.877Z,31.20
2023-01-20T01:11:43.797Z,30.73
2023-01-20T01:13:46.687Z,30.55
2023-01-20T01:15:50.017Z,31.23
2023-01-20T01:17:53.406Z,29.10
2023-01-20T01:19:57.760Z,29.38
2023-01-20T01:22:00.727Z,30.30
2023-01-20T01:24:03.927Z,32.33
2023-01-20T01:26:07.115Z,32.80
2023-01-20T01:28:10.007Z,31.90
2023-01-20T01:30:13.485Z,31.73
2023-01-20T01:32:16.256Z,32.38
2023-01-20T01:34:19.487Z,32.40
2023-01-20T01:36:24.137Z,31.00
2023-01-20T01:38:27.258Z,31.65
2023-01-20T01:40:30.288Z,33.25
2023-01-20T01:42:33.210Z,35.97
2023-01-20T01:44:39.370Z,36.83
2023-01-20T01:46:42.668Z,36.50
2023-01-20T01:48:46.007Z,37.83
2023-01-20T01:50:52.012Z,36.63
2023-01-20T01:52:56.928Z,36.63
2023-01-20T01:55:00.103Z,35.28
2023-01-20T01:57:03.078Z,37.08
2023-01-20T01:59:06.092Z,35.15
2023-01-20T02:01:12.213Z,32.50
2023-01-20T02:03:15.316Z,34.40
2023-01-20T02:05:18.775Z,33.17
2023-01-20T02:07:21.769Z,32.88
2023-01-20T02:09:27.294Z,31.83
2023-01-20T02:13:33.907Z,32.92
2023-01-20T02:15:42.089Z,31.73
2023-01-20T02:17:54.970Z,31.38
2023-01-20T02:20:42.365Z,31.13
2023-01-20T02:22:48.728Z,28.63
2023-01-20T02:25:15.002Z,29.45
2023-01-20T02:27:24.271Z,28.40
2023-01-20T02:30:09.784Z,29.60
2023-01-20T02:32:26.568Z,29.30
2023-01-20T02:34:31.097Z,28.58
2023-01-20T02:36:40.327Z,30.00
2023-01-20T02:38:45.013Z,29.73
2023-01-20T02:40:54.068Z,29.08
2023-01-20T02:43:02.834Z,28.85
2023-01-20T02:45:10.082Z,29.42
2023-01-20T02:47:17.727Z,30.17
2023-01-20T02:49:24.381Z,28.67
2023-01-20T02:51:31.411Z,27.98
2023-01-20T02:53:38.451Z,27.90
2023-01-20T02:55:43.551Z,27.38
2023-01-20T02:57:49.256Z,27.60
2023-01-20T03:02:02.970Z,26.92
2023-01-20T03:04:09.867Z,28.55
2023-01-20T03:06:17.166Z,25.27
2023-01-20T03:08:20.768Z,27.02
2023-01-20T03:10:25.487Z,27.20
2023-01-20T03:12:30.836Z,27.10
2023-01-20T03:14:33.769Z,27.20
2023-01-20T03:16:36.875Z,27.75
2023-01-20T03:18:40.368Z,26.75
2023-01-20T03:20:44.772Z,25.85
2023-01-20T03:22:47.757Z,26.90
2023-01-20T03:24:51.210Z,26.38
2023-01-20T03:26:54.922Z,27.05
2023-01-20T03:28:58.378Z,27.38
2023-01-20T03:31:03.447Z,27.35
2023-01-20T03:33:06.600Z,27.02
2023-01-20T03:35:10.278Z,25.75
2023-01-20T03:37:14.802Z,26.73
2023-01-20T03:39:18.249Z,26.23
2023-01-20T03:41:26.971Z,25.90
2023-01-20T03:43:35.412Z,26.50
2023-01-20T03:45:41.839Z,26.20
2023-01-20T03:47:54.209Z,26.98
2023-01-20T03:50:00.767Z,29.15
2023-01-20T03:52:07.690Z,29.80
2023-01-20T03:54:18.143Z,29.80
2023-01-20T03:56:24.378Z,29.73
2023-01-20T03:58:29.448Z,29.05
2023-01-20T04:00:35.416Z,28.50
2023-01-20T04:02:40.677Z,27.92
2023-01-20T04:04:45.546Z,28.10
2023-01-20T04:06:50.137Z,28.92
2023-01-20T04:08:57.065Z,28.83
2023-01-20T04:11:01.975Z,29.85
2023-01-20T04:13:04.989Z,28.90
2023-01-20T04:15:08.814Z,27.65
2023-01-20T04:17:12.127Z,28.33
2023-01-20T04:19:14.967Z,30.58
2023-01-20T04:21:22.485Z,28.88
2023-01-20T04:23:29.777Z,29.98
2023-01-20T04:25:33.207Z,28.88
2023-01-20T04:27:37.508Z,30.98
2023-01-20T04:29:41.960Z,29.50
2023-01-20T04:31:44.822Z,29.52
2023-01-20T04:33:47.677Z,28.02
2023-01-20T04:35:50.778Z,28.38
2023-01-20T04:37:54.301Z,27.15
2023-01-20T04:39:57.166Z,26.42
2023-01-20T04:42:00.187Z,28.10
2023-01-20T04:44:04.696Z,25.48
2023-01-20T04:46:07.815Z,28.05
2023-01-20T04:48:11.109Z,27.85
2023-01-20T04:50:15.430Z,27.50
2023-01-20T04:52:18.349Z,26.98
2023-01-20T04:54:21.575Z,26.90
2023-01-20T04:56:24.812Z,26.13
2023-01-20T04:58:27.796Z,27.77
2023-01-20T05:00:32.133Z,27.55
2023-01-20T05:02:35.222Z,28.48
2023-01-20T05:04:38.447Z,27.30
2023-01-20T05:06:43.696Z,27.27
2023-01-20T05:08:46.652Z,28.08
2023-01-20T05:10:49.616Z,27.85
2023-01-20T05:12:52.492Z,26.00
2023-01-20T05:14:55.548Z,26.80
2023-01-20T05:16:59.888Z,27.88
2023-01-20T05:19:02.826Z,27.17
2023-01-20T05:21:08.251Z,27.33
2023-01-20T05:23:11.099Z,26.38
2023-01-20T05:25:14.305Z,28.13
2023-01-20T05:27:17.317Z,27.50
2023-01-20T05:29:20.187Z,27.80
2023-01-20T05:31:23.149Z,27.48
2023-01-20T05:33:27.618Z,28.67
2023-01-20T05:35:30.583Z,27.02
2023-01-20T05:37:33.787Z,28.40
2023-01-20T05:39:36.788Z,30.38
2023-01-20T05:41:39.646Z,30.80
2023-01-20T05:43:42.775Z,33.17
2023-01-20T05:45:47.013Z,35.08
2023-01-20T05:47:55.607Z,36.05
2023-01-20T05:50:00.008Z,38.33
2023-01-20T05:52:02.928Z,38.08
2023-01-20T05:54:05.916Z,30.80
2023-01-20T05:56:09.337Z,38.97
2023-01-20T05:58:12.527Z,38.10
2023-01-20T06:00:15.898Z,40.38
2023-01-20T06:02:19.690Z,41.38
2023-01-20T06:04:22.606Z,41.85
2023-01-20T06:06:27.687Z,40.42
2023-01-20T06:08:30.965Z,39.85
2023-01-20T06:10:34.526Z,40.60
2023-01-20T06:12:37.702Z,34.28
2023-01-20T06:14:40.539Z,36.58
2023-01-20T06:16:43.587Z,34.67
2023-01-20T06:18:46.450Z,36.10
2023-01-20T06:20:49.614Z,33.95
2023-01-20T06:22:56.727Z,37.17
2023-01-20T06:24:59.789Z,36.95
2023-01-20T06:27:02.680Z,38.55
2023-01-20T06:29:05.719Z,40.47
2023-01-20T06:31:10.668Z,38.97
2023-01-20T06:33:13.667Z,37.28
2023-01-20T06:35:16.964Z,39.35
2023-01-20T06:37:20.087Z,43.40
2023-01-20T06:39:24.337Z,29.73
2023-01-20T06:41:27.474Z,32.38
2023-01-20T06:43:30.711Z,35.47
2023-01-20T06:45:33.767Z,34.03
2023-01-20T06:47:36.903Z,34.90
2023-01-20T06:49:39.851Z,36.63
2023-01-20T06:51:42.738Z,34.67
2023-01-20T06:53:45.855Z,36.72
2023-01-20T06:55:57.148Z,33.08
2023-01-20T06:58:00.146Z,30.75
2023-01-20T07:00:03.649Z,32.33
2023-01-20T07:02:07.227Z,31.67
2023-01-20T07:04:12.008Z,27.17
2023-01-20T07:06:16.983Z,28.17
2023-01-20T07:08:19.868Z,26.13
2023-01-20T07:10:22.895Z,24.88
2023-01-20T07:12:27.360Z,26.92
2023-01-20T07:14:30.530Z,27.45
2023-01-20T07:16:33.789Z,26.63
2023-01-20T07:18:36.888Z,28.42
2023-01-20T07:20:39.758Z,29.67
2023-01-20T07:22:42.968Z,28.08
2023-01-20T07:24:45.887Z,27.77
2023-01-20T07:26:48.847Z,31.25
2023-01-20T07:28:53.290Z,31.23
2023-01-20T07:30:56.365Z,31.88
2023-01-20T07:32:59.296Z,33.65
2023-01-20T07:35:02.211Z,32.42
2023-01-20T07:37:05.128Z,33.78
2023-01-20T07:39:09.578Z,35.22
2023-01-20T07:41:16.409Z,32.63
2023-01-20T07:43:19.574Z,33.00
2023-01-20T07:45:24.002Z,30.77
2023-01-20T07:47:27.338Z,30.55
2023-01-20T07:49:30.217Z,26.42
2023-01-20T07:51:33.167Z,27.50
2023-01-20T07:53:37.452Z,28.65
2023-01-20T07:55:40.567Z,27.33
2023-01-20T07:57:43.577Z,25.55
2023-01-20T07:59:46.452Z,23.17
2023-01-20T08:01:51.076Z,22.80
2023-01-20T08:03:54.521Z,25.65
2023-01-20T08:05:57.388Z,25.63
2023-01-20T08:08:00.391Z,25.85
2023-01-20T08:10:03.268Z,26.85
2023-01-20T08:12:06.880Z,26.25
2023-01-20T08:14:09.678Z,29.42
2023-01-20T08:16:14.677Z,24.52
2023-01-20T08:18:19.050Z,24.25
2023-01-20T08:20:22.043Z,23.77
2023-01-20T08:22:25.887Z,24.63
2023-01-20T08:24:29.018Z,24.60
2023-01-20T08:26:32.307Z,24.88
2023-01-20T08:28:36.250Z,26.15
2023-01-20T08:30:39.309Z,21.77
2023-01-20T08:32:42.601Z,23.45
2023-01-20T08:34:47.256Z,22.40
2023-01-20T08:36:53.461Z,23.90
2023-01-20T08:38:56.730Z,25.08
2023-01-20T08:41:00.731Z,23.45
2023-01-20T08:43:03.651Z,24.42
2023-01-20T08:45:08.538Z,23.30
2023-01-20T08:47:12.189Z,24.60
2023-01-20T08:49:17.024Z,24.48
2023-01-20T08:51:22.959Z,23.20
2023-01-20T08:53:26.507Z,20.70
2023-01-20T08:55:29.378Z,22.73
2023-01-20T08:57:32.568Z,23.83
2023-01-20T08:59:35.487Z,23.42
2023-01-20T09:01:38.715Z,23.50
2023-01-20T09:03:45.022Z,20.95
2023-01-20T09:05:52.808Z,21.80
2023-01-20T09:07:57.206Z,22.17
2023-01-20T09:10:00.207Z,21.50
2023-01-20T09:12:04.318Z,23.80
2023-01-20T09:14:07.312Z,22.95
2023-01-20T09:16:12.085Z,21.25
2023-01-20T09:18:15.087Z,20.02
2023-01-20T09:20:18.346Z,21.08
2023-01-20T09:22:21.277Z,20.65
2023-01-20T09:24:25.647Z,21.63
2023-01-20T09:26:36.324Z,21.20
2023-01-20T09:28:39.310Z,21.75
2023-01-20T09:30:43.315Z,20.27
2023-01-20T09:32:46.371Z,22.10
2023-01-20T09:34:49.337Z,21.95
2023-01-20T09:36:52.874Z,19.73
2023-01-20T09:39:14.369Z,22.35
2023-01-20T09:41:42.627Z,19.13
2023-01-20T09:43:56.531Z,19.25
2023-01-20T09:46:03.235Z,19.67
2023-01-20T09:48:35.568Z,18.42
2023-01-20T09:51:04.984Z,20.58
2023-01-20T09:53:15.847Z,21.23
2023-01-20T09:55:25.036Z,19.33
2023-01-20T09:57:33.927Z,20.42
2023-01-20T09:59:39.687Z,19.90
2023-01-20T10:01:44.665Z,19.83
2023-01-20T10:03:51.695Z,21.77
2023-01-20T10:05:57.267Z,19.80
2023-01-20T10:08:03.972Z,21.77
2023-01-20T10:10:13.694Z,23.55
2023-01-20T10:12:19.451Z,22.50
2023-01-20T10:14:26.159Z,24.17
2023-01-20T10:16:32.940Z,22.67
2023-01-20T10:18:38.317Z,22.55
2023-01-20T10:20:45.847Z,22.92
2023-01-20T10:22:52.758Z,23.20
2023-01-20T10:24:59.987Z,22.05
2023-01-20T10:27:04.131Z,22.88
2023-01-20T10:29:10.775Z,24.10
2023-01-20T10:31:19.568Z,25.38
2023-01-20T10:33:28.020Z,27.40
2023-01-20T10:35:37.281Z,29.55
2023-01-20T10:37:40.449Z,28.00
2023-01-20T10:39:47.406Z,29.85
2023-01-20T10:41:53.352Z,30.33
2023-01-20T10:43:57.194Z,30.80
2023-01-20T10:46:17.553Z,30.15
2023-01-20T10:48:31.168Z,30.92
2023-01-20T10:50:44.006Z,30.75
2023-01-20T10:53:18.688Z,30.50
2023-01-20T10:55:29.795Z,29.10
2023-01-20T10:57:33.017Z,31.02
2023-01-20T10:59:38.537Z,31.58
2023-01-20T11:01:43.880Z,33.40
2023-01-20T11:03:49.580Z,31.52
2023-01-20T11:05:53.110Z,31.67
2023-01-20T11:07:57.187Z,30.08
2023-01-20T11:10:01.937Z,29.42
2023-01-20T11:12:10.576Z,28.92
2023-01-20T11:14:13.611Z,27.58
2023-01-20T11:16:19.764Z,28.55
2023-01-20T11:18:28.221Z,30.80
2023-01-20T11:20:31.287Z,27.67
2023-01-20T11:22:36.333Z,28.05
2023-01-20T11:24:43.178Z,28.58
2023-01-20T11:26:46.247Z,25.63
2023-01-20T11:28:52.730Z,24.15
2023-01-20T11:30:56.679Z,23.13
2023-01-20T11:33:10.402Z,20.95
2023-01-20T11:35:25.598Z,20.45
2023-01-20T11:37:36.215Z,21.00
2023-01-20T11:39:44.987Z,22.25
2023-01-20T11:41:47.979Z,21.85
2023-01-20T11:43:52.203Z,21.40
2023-01-20T11:46:16.565Z,21.10
2023-01-20T11:48:21.806Z,20.13
2023-01-20T11:50:29.236Z,21.27
2023-01-20T11:52:32.493Z,19.65
2023-01-20T11:54:37.248Z,20.42
2023-01-20T11:56:42.369Z,20.23
2023-01-20T11:58:55.757Z,21.00
2023-01-20T12:01:04.090Z,20.92
2023-01-20T12:03:24.892Z,22.15
2023-01-20T12:05:34.539Z,22.58
2023-01-20T12:07:42.150Z,21.75
2023-01-20T12:09:47.688Z,23.27
2023-01-20T12:14:21.060Z,22.25
2023-01-20T12:16:24.862Z,23.85
2023-01-20T12:18:35.050Z,22.30
2023-01-20T12:20:54.647Z,23.65
2023-01-20T12:23:21.196Z,23.98
2023-01-20T12:25:27.770Z,21.27
2023-01-20T12:27:31.019Z,20.50
2023-01-20T12:29:38.488Z,19.27
2023-01-20T12:31:41.778Z,19.42
2023-01-20T12:33:45.927Z,20.23
2023-01-20T12:36:17.107Z,18.63
2023-01-20T12:38:20.327Z,18.95
2023-01-20T12:40:29.949Z,19.08
2023-01-20T12:42:59.351Z,19.38
2023-01-20T12:45:05.451Z,18.33
2023-01-20T12:47:17.305Z,18.40
2023-01-20T12:49:44.226Z,17.63
2023-01-20T12:52:01.949Z,18.15
2023-01-20T12:54:25.966Z,18.88
2023-01-20T12:58:44.662Z,18.92
2023-01-20T13:01:06.883Z,18.15
2023-01-20T13:03:49.647Z,18.15
2023-01-20T13:06:27.725Z,18.30
2023-01-20T13:08:37.657Z,18.05
2023-01-20T13:10:51.431Z,19.00
2023-01-20T13:12:58.527Z,17.10
2023-01-20T13:15:09.691Z,15.82
2023-01-20T13:17:19.216Z,17.90
2023-01-20T13:19:29.719Z,17.25
2023-01-20T13:21:33.251Z,17.13
2023-01-20T13:23:38.175Z,17.88
2023-01-20T13:25:42.169Z,19.67
2023-01-20T13:27:45.356Z,18.73
2023-01-20T13:29:54.378Z,23.15
2023-01-20T13:31:57.381Z,19.98
2023-01-20T13:34:32.408Z,19.30
2023-01-20T13:36:35.408Z,20.95
2023-01-20T13:38:39.958Z,20.08
2023-01-20T13:40:51.397Z,21.02
2023-01-20T13:42:55.130Z,24.60
2023-01-20T13:45:19.656Z,25.20
2023-01-20T13:47:49.799Z,24.23
2023-01-20T13:49:53.493Z,23.73
2023-01-20T13:51:56.616Z,23.73
2023-01-20T13:54:51.485Z,22.52
2023-01-20T13:57:44.419Z,21.33
2023-01-20T13:59:47.469Z,21.50
2023-01-20T14:01:50.487Z,22.73
2023-01-20T14:04:17.167Z,23.13
2023-01-20T14:06:21.174Z,22.00
2023-01-20T14:08:25.012Z,18.50
2023-01-20T14:10:30.211Z,21.83
2023-01-20T14:12:40.527Z,22.10
2023-01-20T14:14:44.188Z,21.17
2023-01-20T14:16:47.532Z,22.05
2023-01-20T14:18:52.755Z,23.27
2023-01-20T14:21:03.302Z,20.45
2023-01-20T14:23:28.135Z,21.55
2023-01-20T14:25:32.533Z,21.08
2023-01-20T14:27:42.218Z,21.27
2023-01-20T14:29:45.368Z,21.17
2023-01-20T14:31:48.532Z,22.88
2023-01-20T14:33:55.367Z,22.13
2023-01-20T14:35:58.289Z,21.38
2023-01-20T14:38:01.430Z,20.85
2023-01-20T14:40:08.838Z,24.10
2023-01-20T14:42:19.057Z,24.27
2023-01-20T14:44:23.455Z,19.80
2023-01-20T14:46:27.101Z,20.40
2023-01-20T14:48:34.780Z,20.17
2023-01-20T14:50:38.999Z,20.30
2023-01-20T14:52:42.211Z,19.92
2023-01-20T14:54:46.045Z,22.40
2023-01-20T14:56:49.018Z,20.80
2023-01-20T14:58:55.115Z,22.50
2023-01-20T15:01:00.661Z,21.77
2023-01-20T15:05:28.431Z,24.35
2023-01-20T15:07:31.307Z,24.70
2023-01-20T15:09:36.591Z,25.98
2023-01-20T15:11:39.589Z,27.13
2023-01-20T15:13:43.013Z,25.23
2023-01-20T15:15:47.756Z,24.00
2023-01-20T15:18:23.725Z,24.47
2023-01-20T15:20:28.008Z,22.48
2023-01-20T15:22:30.847Z,23.95
2023-01-20T15:24:41.369Z,27.27
2023-01-20T15:26:45.286Z,26.80
2023-01-20T15:28:48.689Z,26.55
2023-01-20T15:30:53.906Z,28.15
2023-01-20T15:32:56.966Z,16.52
2023-01-20T15:35:01.429Z,27.25
2023-01-20T15:37:10.248Z,29.60
2023-01-20T15:39:13.398Z,29.10
2023-01-20T15:41:17.280Z,27.63
2023-01-20T15:43:20.447Z,28.83
2023-01-20T15:45:23.362Z,30.33
2023-01-20T15:47:31.311Z,30.02
2023-01-20T15:49:34.326Z,29.85
2023-01-20T15:51:37.272Z,27.17
2023-01-20T15:53:40.200Z,25.27
2023-01-20T15:55:49.021Z,23.15
2023-01-20T15:57:53.081Z,20.85
2023-01-20T15:59:56.112Z,22.35
2023-01-20T16:01:59.752Z,22.65
2023-01-20T16:04:04.287Z,21.70
2023-01-20T16:06:11.838Z,22.85
2023-01-20T16:08:16.083Z,23.48
2023-01-20T16:10:19.903Z,21.70
2023-01-20T16:12:23.022Z,22.67
2023-01-20T16:14:26.094Z,22.92
2023-01-20T16:16:30.447Z,20.65
2023-01-20T16:18:33.479Z,19.45
2023-01-20T16:20:38.113Z,21.42
2023-01-20T16:22:41.038Z,21.20
2023-01-20T16:24:44.447Z,19.85
2023-01-20T16:26:47.807Z,19.77
2023-01-20T16:28:51.014Z,21.92
2023-01-20T16:30:54.501Z,22.33
2023-01-20T16:32:57.259Z,22.58
2023-01-20T16:35:00.211Z,24.00
2023-01-20T16:37:04.629Z,20.85
2023-01-20T16:39:08.076Z,22.70
2023-01-20T16:41:15.548Z,27.08
2023-01-20T16:43:19.191Z,24.15
2023-01-20T16:45:24.722Z,26.05
2023-01-20T16:49:30.247Z,25.02
2023-01-20T16:51:33.631Z,25.83
2023-01-20T16:53:37.940Z,26.60
2023-01-20T16:55:43.732Z,27.25
2023-01-20T16:57:46.806Z,27.33
2023-01-20T16:59:49.770Z,27.60
2023-01-20T17:01:53.072Z,28.85
2023-01-20T17:03:59.048Z,30.42
2023-01-20T17:06:09.338Z,28.45
2023-01-20T17:08:12.378Z,31.52
2023-01-20T17:10:17.703Z,30.00
2023-01-20T17:12:20.926Z,29.27
2023-01-20T17:14:23.974Z,30.67
2023-01-20T17:16:26.978Z,32.10
2023-01-20T17:18:29.837Z,33.70
2023-01-20T17:20:32.890Z,35.10
2023-01-20T17:22:35.777Z,34.60
2023-01-20T17:24:39.718Z,32.65
2023-01-20T17:26:44.488Z,31.70
2023-01-20T17:28:47.726Z,33.08
2023-01-20T17:30:50.585Z,33.90
2023-01-20T17:32:53.576Z,35.20
2023-01-20T17:34:56.609Z,27.13
2023-01-20T17:37:00.312Z,34.58
2023-01-20T17:39:04.807Z,34.45
2023-01-20T17:41:08.771Z,32.80
2023-01-20T17:43:13.863Z,34.05
2023-01-20T17:45:17.203Z,35.40
2023-01-20T17:47:20.316Z,34.45
2023-01-20T17:49:23.491Z,33.13
2023-01-20T17:51:28.021Z,36.40
2023-01-20T17:53:32.807Z,36.78
2023-01-20T17:55:36.094Z,36.90
2023-01-20T17:57:39.048Z,39.85
2023-01-20T17:59:43.336Z,36.63
2023-01-20T18:01:46.390Z,40.13
2023-01-20T18:03:51.670Z,37.65
2023-01-20T18:05:55.324Z,36.45
2023-01-20T18:07:58.248Z,33.95
2023-01-20T18:10:01.168Z,35.72
2023-01-20T18:12:04.170Z,35.33
2023-01-20T18:14:07.370Z,33.35
2023-01-20T18:16:13.320Z,35.60
2023-01-20T18:18:16.368Z,34.50
2023-01-20T18:20:19.569Z,35.05
2023-01-20T18:22:22.470Z,32.92
2023-01-20T18:24:25.348Z,35.92
2023-01-20T18:26:29.988Z,34.90
2023-01-20T18:28:32.969Z,34.13
2023-01-20T18:30:35.948Z,35.20
2023-01-20T18:32:40.347Z,34.50
2023-01-20T18:34:43.330Z,35.78
2023-01-20T18:36:46.833Z,35.17
2023-01-20T18:38:53.307Z,34.75
2023-01-20T18:40:56.247Z,34.17
2023-01-20T18:42:59.121Z,32.75
2023-01-20T18:45:01.888Z,29.85
2023-01-20T18:47:05.287Z,32.63
2023-01-20T18:49:11.848Z,32.63
2023-01-20T18:51:15.934Z,31.48
2023-01-20T18:53:18.894Z,31.60
2023-01-20T18:55:21.808Z,31.42
2023-01-20T18:57:24.727Z,30.17
2023-01-20T18:59:27.977Z,30.98
2023-01-20T19:01:33.976Z,33.17
2023-01-20T19:03:38.169Z,26.77
2023-01-20T19:05:43.968Z,29.50
2023-01-20T19:07:49.691Z,32.63
2023-01-20T19:11:55.398Z,28.83
2023-01-20T19:13:58.701Z,27.83
2023-01-20T19:16:02.030Z,30.70
2023-01-20T19:18:05.157Z,30.25
2023-01-20T19:20:09.593Z,31.20
2023-01-20T19:22:14.218Z,35.88
2023-01-20T19:24:19.167Z,31.90
2023-01-20T19:26:23.360Z,34.25
2023-01-20T19:28:26.289Z,33.78
2023-01-20T19:30:29.506Z,36.03
2023-01-20T19:32:32.545Z,36.70
2023-01-20T19:34:35.624Z,36.70
2023-01-20T19:36:38.803Z,37.03
2023-01-20T19:38:43.689Z,35.67
2023-01-20T19:40:46.609Z,36.85
2023-01-20T19:42:51.248Z,36.38
2023-01-20T19:44:54.170Z,35.27
2023-01-20T19:47:02.697Z,36.78
2023-01-20T19:49:05.737Z,28.50
2023-01-20T19:51:10.153Z,31.00
2023-01-20T19:53:13.176Z,36.47
2023-01-20T19:55:17.656Z,36.42
2023-01-20T19:57:20.609Z,36.70
2023-01-20T19:59:23.469Z,35.40
2023-01-20T20:01:29.892Z,35.78
2023-01-20T20:03:34.271Z,35.25
2023-01-20T20:05:38.359Z,33.50
2023-01-20T20:07:41.356Z,27.88
2023-01-20T20:09:44.287Z,33.28
2023-01-20T20:11:48.908Z,32.95
2023-01-20T20:13:54.825Z,30.87
2023-01-20T20:16:01.380Z,33.67
2023-01-20T20:18:04.426Z,31.60
2023-01-20T20:20:07.764Z,30.83
2023-01-20T20:22:10.650Z,30.50
2023-01-20T20:24:14.575Z,30.85
2023-01-20T20:26:17.498Z,30.60
2023-01-20T20:28:21.744Z,26.95
2023-01-20T20:30:24.718Z,29.98
2023-01-20T20:32:27.536Z,30.58
2023-01-20T20:34:30.755Z,29.02
2023-01-20T20:36:33.936Z,29.73
2023-01-20T20:38:37.074Z,28.15
2023-01-20T20:40:39.829Z,25.83
2023-01-20T20:42:43.399Z,29.38
2023-01-20T20:44:47.664Z,31.55
2023-01-20T20:46:50.582Z,28.00
2023-01-20T20:48:53.946Z,31.00
2023-01-20T20:50:56.840Z,29.58
2023-01-20T20:52:59.594Z,27.75
2023-01-20T20:55:02.575Z,27.95
2023-01-20T20:57:05.405Z,27.08
2023-01-20T20:59:09.365Z,25.58
2023-01-20T21:01:19.075Z,26.25
2023-01-20T21:03:21.845Z,27.88
2023-01-20T21:05:24.687Z,27.13
2023-01-20T21:07:27.593Z,25.73
2023-01-20T21:09:30.768Z,26.95
2023-01-20T21:11:33.653Z,26.25
2023-01-20T21:13:36.769Z,24.77
2023-01-20T21:15:39.730Z,25.42
2023-01-20T21:17:44.028Z,24.10
2023-01-20T21:19:52.294Z,24.95
2023-01-20T21:21:55.609Z,24.38
2023-01-20T21:23:59.946Z,25.10
2023-01-20T21:26:03.448Z,22.55
2023-01-20T21:28:06.379Z,22.73
2023-01-20T21:30:10.651Z,23.42
2023-01-20T21:32:13.578Z,24.50
2023-01-20T21:34:17.907Z,22.27
2023-01-20T21:36:21.599Z,22.60
2023-01-20T21:38:24.430Z,22.77
2023-01-20T21:40:27.409Z,19.60
2023-01-20T21:42:30.363Z,21.88
2023-01-20T21:44:34.400Z,20.27
2023-01-20T21:46:39.462Z,22.10
2023-01-20T21:49:01.427Z,21.33
2023-01-20T21:51:24.808Z,20.15
2023-01-20T21:53:27.734Z,20.25
2023-01-20T21:55:30.557Z,20.27
2023-01-20T21:57:33.756Z,20.23
2023-01-20T21:59:36.819Z,20.73
2023-01-20T22:01:39.889Z,20.65
2023-01-20T22:03:42.821Z,21.00
2023-01-20T22:05:45.767Z,20.92
2023-01-20T22:07:50.033Z,20.40
2023-01-20T22:09:53.128Z,20.48
2023-01-20T22:11:56.014Z,18.63
2023-01-20T22:13:58.970Z,20.13
2023-01-20T22:16:03.626Z,18.05
2023-01-20T22:18:06.688Z,18.15
2023-01-20T22:20:11.077Z,18.38
2023-01-20T22:22:15.294Z,20.70
2023-01-20T22:24:19.853Z,19.27
2023-01-20T22:26:22.778Z,21.23
2023-01-20T22:28:25.701Z,19.75
2023-01-20T22:30:28.641Z,19.17
2023-01-20T22:32:31.589Z,19.38
2023-01-20T22:34:34.500Z,19.27
2023-01-20T22:36:37.607Z,20.10
2023-01-20T22:38:40.647Z,20.05
2023-01-20T22:40:45.007Z,18.15
2023-01-20T22:42:47.871Z,19.80
2023-01-20T22:44:51.230Z,18.63
2023-01-20T22:46:55.056Z,18.52
2023-01-20T22:48:58.501Z,15.65
2023-01-20T22:51:05.247Z,22.10
2023-01-20T22:53:08.208Z,19.35
2023-01-20T22:55:11.110Z,18.27
2023-01-20T22:57:15.536Z,18.38
2023-01-20T22:59:18.527Z,17.90
2023-01-20T23:01:22.772Z,18.35
2023-01-20T23:03:25.887Z,18.13
2023-01-20T23:05:28.749Z,19.60
2023-01-20T23:07:31.681Z,16.73
2023-01-20T23:09:34.489Z,15.02
2023-01-20T23:11:38.647Z,17.02
2023-01-20T23:13:43.458Z,16.30
2023-01-20T23:15:46.447Z,17.38
2023-01-20T23:17:49.387Z,17.00
2023-01-20T23:19:52.252Z,17.73
2023-01-20T23:21:55.147Z,16.83
2023-01-20T23:23:58.171Z,16.95
2023-01-20T23:26:02.453Z,16.25
2023-01-20T23:28:05.727Z,14.45
2023-01-20T23:30:13.401Z,16.48
2023-01-20T23:32:16.313Z,15.68
2023-01-20T23:34:19.210Z,15.82
2023-01-20T23:36:25.019Z,15.82
2023-01-20T23:38:27.929Z,16.25
2023-01-20T23:40:30.887Z,16.38
2023-01-20T23:42:33.959Z,16.58
2023-01-20T23:44:36.930Z,16.35
2023-01-20T23:46:41.299Z,15.82
2023-01-20T23:48:45.705Z,17.48
2023-01-20T23:50:48.633Z,15.90
2023-01-20T23:52:51.568Z,15.57
2023-01-20T23:54:54.655Z,15.32
2023-01-20T23:56:57.525Z,14.50
2023-01-20T23:59:00.457Z,14.70
